Current Weather

Podor

Podor, Senegal (GOSP)

Report from: Wednesday, May 29, 2024 8:00 AM GMT
Current time: Wednesday, May 29, 2024 8:54 AM GMT

Nearby weather – Weather history – Daily summaries
Weather forecast

Temperature25.0°C (77.0°F)
Dew point20.0°C (68.0°F)
Winds 6 kts (3.1 m/s, 6.9 mph) West (280°)
Clouds Sky clear
Altimeter29.97 in.Hg (1015 mB)
Relative humidity74 %
Density altitude1,416 ft. (432 m)
Remarks Ceiling and visibility OK
Flight conditions Visual Meteorological Conditions
Raw dataGOSP 290800Z 28006KT CAVOK 25/20 Q1015
An error has occurred. This application may no longer respond until reloaded. Reload 🗙